createdAt,value
2019-02-12T00:00:50.563Z,96731.52
2019-02-12T00:03:59.055Z,96737.92
2019-02-12T00:06:33.277Z,96738.59
2019-02-12T00:12:05.463Z,96744.96
2019-02-12T00:14:38.748Z,96737.00
2019-02-12T00:20:30.231Z,96745.95
2019-02-12T00:23:00.365Z,96740.52
2019-02-12T00:25:30.996Z,96738.24
2019-02-12T00:28:14.205Z,96754.03
2019-02-12T00:31:03.504Z,96752.39
2019-02-12T00:33:36.724Z,96753.04
2019-02-12T00:36:19.089Z,96753.22
2019-02-12T00:39:00.517Z,96761.93
2019-02-12T00:41:32.457Z,96773.73
2019-02-12T00:46:52.103Z,96785.66
2019-02-12T00:49:23.995Z,96785.02
2019-02-12T00:51:54.245Z,96792.42
2019-02-12T00:54:43.847Z,96772.36
2019-02-12T00:57:14.112Z,96778.44
2019-02-12T00:59:44.393Z,96774.95
2019-02-12T01:02:26.736Z,96777.27
2019-02-12T01:05:09.941Z,96775.77
2019-02-12T01:07:41.153Z,96773.99
2019-02-12T01:10:11.416Z,96768.48
2019-02-12T01:15:36.580Z,96774.84
2019-02-12T01:18:18.665Z,96783.88
2019-02-12T01:21:27.141Z,96779.12
2019-02-12T01:26:59.262Z,96772.68
2019-02-12T01:29:29.900Z,96772.36
2019-02-12T01:32:19.571Z,96770.29
2019-02-12T01:35:09.042Z,96767.48
2019-02-12T01:40:42.007Z,96779.33
2019-02-12T01:43:22.787Z,96785.27
2019-02-12T01:46:12.871Z,96784.70
2019-02-12T01:51:45.486Z,96786.48
2019-02-12T01:54:27.888Z,96790.61
2019-02-12T01:56:58.184Z,96801.46
2019-02-12T01:59:28.550Z,96797.05
2019-02-12T02:02:35.604Z,96805.77
2019-02-12T02:05:06.774Z,96806.64
2019-02-12T02:10:30.486Z,96801.99
2019-02-12T02:13:00.798Z,96796.69
2019-02-12T02:15:31.330Z,96805.44
2019-02-12T02:18:13.625Z,96808.08
2019-02-12T02:21:01.894Z,96808.72
2019-02-12T02:23:40.920Z,96808.39
2019-02-12T02:26:23.116Z,96806.58
2019-02-12T02:28:54.701Z,96801.17
2019-02-12T02:35:04.085Z,96815.04
2019-02-12T02:37:36.106Z,96814.98
2019-02-12T02:40:18.485Z,96818.81
2019-02-12T02:43:00.995Z,96817.78
2019-02-12T02:45:32.173Z,96812.84
2019-02-12T02:48:02.551Z,96821.45
2019-02-12T02:50:44.076Z,96822.30
2019-02-12T02:53:29.992Z,96828.73
2019-02-12T02:56:20.760Z,96831.51
2019-02-12T02:58:51.016Z,96827.73
2019-02-12T03:01:33.187Z,96830.40
2019-02-12T03:04:14.793Z,96836.69
2019-02-12T03:06:45.092Z,96840.92
2019-02-12T03:09:15.384Z,96836.86
2019-02-12T03:11:57.777Z,96840.81
2019-02-12T03:14:40.091Z,96848.15
2019-02-12T03:17:13.321Z,96853.73
2019-02-12T03:19:43.606Z,96860.37
2019-02-12T03:22:25.217Z,96867.89
2019-02-12T03:25:07.625Z,96868.27
2019-02-12T03:27:38.277Z,96879.23
2019-02-12T03:30:09.400Z,96872.31
2019-02-12T03:32:43.265Z,96871.98
2019-02-12T03:35:13.567Z,96875.79
2019-02-12T03:37:43.835Z,96885.67
2019-02-12T03:40:33.481Z,96878.30
2019-02-12T03:43:03.851Z,96875.84
2019-02-12T03:45:34.071Z,96873.53
2019-02-12T03:48:04.372Z,96876.17
2019-02-12T03:50:46.047Z,96883.51
2019-02-12T03:53:28.399Z,96890.73
2019-02-12T03:55:59.600Z,96895.36
2019-02-12T04:01:50.781Z,96894.71
2019-02-12T04:04:40.004Z,96894.36
2019-02-12T04:10:32.227Z,96892.78
2019-02-12T04:13:05.127Z,96895.41
2019-02-12T04:19:00.845Z,96889.50
2019-02-12T04:21:31.088Z,96877.48
2019-02-12T04:24:01.370Z,96887.20
2019-02-12T04:26:43.553Z,96886.88
2019-02-12T04:29:25.530Z,96886.23
2019-02-12T04:31:58.173Z,96891.96
2019-02-12T04:34:32.770Z,96890.33
2019-02-12T04:37:22.441Z,96893.13
2019-02-12T04:39:55.273Z,96891.81
2019-02-12T04:42:59.142Z,96889.85
2019-02-12T04:45:24.983Z,96885.63
2019-02-12T04:47:55.264Z,96878.73
2019-02-12T04:50:37.744Z,96888.27
2019-02-12T04:53:19.881Z,96896.16
2019-02-12T04:55:50.237Z,96901.11
2019-02-12T04:58:20.488Z,96904.06
2019-02-12T05:01:10.103Z,96899.78
2019-02-12T05:03:40.387Z,96905.38
2019-02-12T05:06:10.733Z,96901.45
2019-02-12T05:09:19.431Z,96902.44
2019-02-12T05:12:11.773Z,96903.58
2019-02-12T05:14:42.434Z,96906.06
2019-02-12T05:20:50.347Z,96910.06
2019-02-12T05:23:20.634Z,96909.91
2019-02-12T05:29:12.933Z,96909.07
2019-02-12T05:31:50.917Z,96906.44
2019-02-12T05:34:33.242Z,96909.07
2019-02-12T05:37:03.495Z,96907.44
2019-02-12T05:39:33.729Z,96908.87
2019-02-12T05:42:16.183Z,96911.70
2019-02-12T05:44:58.616Z,96908.42
2019-02-12T05:47:29.377Z,96912.20
2019-02-12T05:50:03.674Z,96901.18
2019-02-12T05:56:08.987Z,96903.11
2019-02-12T05:58:39.209Z,96894.28
2019-02-12T06:01:27.634Z,96896.03
2019-02-12T06:07:02.648Z,96910.68
2019-02-12T06:09:44.629Z,96919.39
2019-02-12T06:12:33.796Z,96919.77
2019-02-12T06:15:04.514Z,96924.22
2019-02-12T06:17:47.717Z,96923.06
2019-02-12T06:20:31.344Z,96920.27
2019-02-12T06:23:03.373Z,96929.16
2019-02-12T06:26:06.544Z,96920.95
2019-02-12T06:28:39.791Z,96924.41
2019-02-12T06:31:29.197Z,96929.32
2019-02-12T06:39:23.154Z,96944.12
2019-02-12T06:41:53.418Z,96942.48
2019-02-12T06:44:23.677Z,96943.63
2019-02-12T06:46:55.550Z,96944.77
2019-02-12T06:50:04.255Z,96945.27
2019-02-12T06:52:54.243Z,96950.38
2019-02-12T06:55:26.937Z,96957.42
2019-02-12T06:58:16.613Z,96952.18
2019-02-12T07:00:46.858Z,96954.48
2019-02-12T07:03:18.757Z,96954.31
2019-02-12T07:09:06.144Z,96960.23
2019-02-12T07:15:53.349Z,96977.01
2019-02-12T07:19:07.542Z,96973.25
2019-02-12T07:25:18.316Z,96984.20
2019-02-12T07:28:26.839Z,96980.61
2019-02-12T07:31:37.556Z,96989.03
2019-02-12T07:34:49.039Z,96993.30
2019-02-12T07:37:59.404Z,96995.61
2019-02-12T07:40:43.489Z,96999.38
2019-02-12T07:43:54.713Z,97007.41
2019-02-12T07:53:45.253Z,97031.45
2019-02-12T07:56:55.355Z,97048.87
2019-02-12T08:00:04.024Z,97054.97
2019-02-12T08:02:52.488Z,97055.00
2019-02-12T08:06:01.090Z,97063.02
2019-02-12T08:09:12.829Z,97063.17
2019-02-12T08:12:07.149Z,97060.38
2019-02-12T08:15:16.835Z,97067.41
2019-02-12T08:18:25.350Z,97074.80
2019-02-12T08:21:34.173Z,97081.15
2019-02-12T08:24:44.569Z,97077.65
2019-02-12T08:27:53.312Z,97077.70
2019-02-12T08:31:01.731Z,97079.34
2019-02-12T08:34:10.466Z,97084.77
2019-02-12T08:40:51.146Z,97078.47
2019-02-12T08:47:00.066Z,97082.69
2019-02-12T08:49:46.036Z,97095.85
2019-02-12T08:52:57.878Z,97089.20
2019-02-12T08:56:08.015Z,97084.02
2019-02-12T08:59:11.328Z,97079.52
2019-02-12T09:02:19.823Z,97086.91
2019-02-12T09:05:12.886Z,97083.63
2019-02-12T09:08:11.305Z,97096.84
2019-02-12T09:11:19.807Z,97098.44
2019-02-12T09:14:28.553Z,97099.17
2019-02-12T09:17:11.039Z,97103.27
2019-02-12T09:20:19.776Z,97108.59
2019-02-12T09:23:28.509Z,97108.07
2019-02-12T09:30:01.127Z,97115.97
2019-02-12T09:36:34.116Z,97124.77
2019-02-12T09:39:44.516Z,97129.33
2019-02-12T09:42:53.001Z,97134.20
2019-02-12T09:46:03.076Z,97148.17
2019-02-12T09:48:57.393Z,97143.17
2019-02-12T09:52:06.104Z,97159.48
2019-02-12T09:58:34.389Z,97162.17
2019-02-12T10:01:26.886Z,97162.89
2019-02-12T10:07:38.155Z,97161.02
2019-02-12T10:10:35.857Z,97161.02
2019-02-12T10:13:46.323Z,97165.53
2019-02-12T10:16:40.788Z,97167.28
2019-02-12T10:19:56.143Z,97160.52
2019-02-12T10:22:41.966Z,97170.65
2019-02-12T10:25:35.449Z,97162.51
2019-02-12T10:31:50.393Z,97173.83
2019-02-12T10:34:20.719Z,97180.27
2019-02-12T10:37:29.143Z,97185.11
2019-02-12T10:43:13.807Z,97182.63
2019-02-12T10:49:33.978Z,97179.81
2019-02-12T10:52:15.116Z,97185.53
2019-02-12T10:54:45.861Z,97199.81
2019-02-12T10:57:16.124Z,97186.12
2019-02-12T11:03:09.433Z,97190.87
2019-02-12T11:12:13.693Z,97174.86
2019-02-12T11:14:44.062Z,97166.99
2019-02-12T11:20:55.879Z,97174.28
2019-02-12T11:23:26.161Z,97172.70
2019-02-12T11:28:49.648Z,97171.63
2019-02-12T11:31:41.499Z,97170.05
2019-02-12T11:34:11.733Z,97164.98
2019-02-12T11:43:07.403Z,97182.36
2019-02-12T11:45:37.691Z,97175.80
2019-02-12T11:48:07.976Z,97181.17
2019-02-12T11:53:42.956Z,97179.06
2019-02-12T11:56:15.672Z,97186.72
2019-02-12T11:59:01.028Z,97178.58
2019-02-12T12:05:01.401Z,97177.09
2019-02-12T12:07:37.358Z,97180.44
2019-02-12T12:13:25.232Z,97190.66
2019-02-12T12:15:55.610Z,97184.45
2019-02-12T12:18:37.262Z,97197.45
2019-02-12T12:21:19.514Z,97202.28
2019-02-12T12:24:27.995Z,97211.78
2019-02-12T12:27:00.276Z,97203.58
2019-02-12T12:29:45.121Z,97199.59
2019-02-12T12:32:16.704Z,97205.16
2019-02-12T12:35:06.106Z,97207.33
2019-02-12T12:37:36.388Z,97209.31
2019-02-12T12:40:08.352Z,97216.75
2019-02-12T12:45:41.368Z,97225.05
2019-02-12T12:54:59.703Z,97223.09
2019-02-12T12:57:32.407Z,97221.50
2019-02-12T13:00:15.025Z,97228.20
2019-02-12T13:02:53.997Z,97226.56
2019-02-12T13:05:24.276Z,97229.16
2019-02-12T13:08:13.969Z,97231.62
2019-02-12T13:10:44.730Z,97236.08
2019-02-12T13:13:22.093Z,97243.67
2019-02-12T13:16:08.244Z,97244.44
2019-02-12T13:18:38.533Z,97250.22
2019-02-12T13:27:08.795Z,97246.03
2019-02-12T13:29:50.801Z,97251.67
2019-02-12T13:32:33.173Z,97245.43
2019-02-12T13:35:03.797Z,97246.57
2019-02-12T13:37:56.161Z,97253.98
2019-02-12T13:40:28.572Z,97247.77
2019-02-12T13:42:59.242Z,97246.56
2019-02-12T13:48:52.013Z,97252.21
2019-02-12T13:51:38.557Z,97261.45
2019-02-12T13:54:37.421Z,97265.98
2019-02-12T13:57:20.752Z,97261.48
2019-02-12T14:00:30.026Z,97267.93
2019-02-12T14:03:02.682Z,97272.19
2019-02-12T14:05:32.966Z,97285.07
2019-02-12T14:08:42.981Z,97274.30
2019-02-12T14:11:13.363Z,97275.68
2019-02-12T14:14:02.821Z,97278.32
2019-02-12T14:19:39.178Z,97275.50
2019-02-12T14:22:25.231Z,97280.28
2019-02-12T14:24:52.303Z,97282.45
2019-02-12T14:27:24.834Z,97279.99
2019-02-12T14:36:03.753Z,97303.32
2019-02-12T14:38:41.517Z,97299.53
2019-02-12T14:44:26.480Z,97307.16
2019-02-12T14:47:34.906Z,97304.20
2019-02-12T14:50:11.900Z,97312.77
2019-02-12T14:56:11.215Z,97311.80
2019-02-12T14:58:46.141Z,97319.59
2019-02-12T15:04:49.528Z,97322.41
2019-02-12T15:13:27.698Z,97328.11
2019-02-12T15:16:10.562Z,97335.36
2019-02-12T15:18:44.067Z,97333.22
2019-02-12T15:21:24.041Z,97334.86
2019-02-12T15:27:03.703Z,97337.35
2019-02-12T15:29:53.247Z,97339.67
2019-02-12T15:38:24.912Z,97335.47
2019-02-12T15:50:04.787Z,97352.03
2019-02-12T15:52:53.285Z,97351.70
2019-02-12T15:55:25.677Z,97351.23
2019-02-12T16:04:21.571Z,97369.38
2019-02-12T16:11:11.110Z,97369.75
2019-02-12T16:16:52.495Z,97373.56
2019-02-12T16:20:22.417Z,97368.95
2019-02-12T16:22:51.177Z,97374.38
2019-02-12T16:25:23.082Z,97380.83
2019-02-12T16:27:55.001Z,97388.59
2019-02-12T16:36:33.992Z,97402.17
2019-02-12T16:39:05.587Z,97407.11
2019-02-12T16:41:56.983Z,97407.61
2019-02-12T16:47:57.992Z,97421.14
2019-02-12T16:50:40.341Z,97421.81
2019-02-12T16:53:22.369Z,97419.71
2019-02-12T16:56:08.395Z,97420.88
2019-02-12T17:01:39.090Z,97443.14
2019-02-12T17:04:24.139Z,97451.42
2019-02-12T17:07:13.595Z,97453.56
2019-02-12T17:10:23.321Z,97456.87
2019-02-12T17:13:09.965Z,97454.07
2019-02-12T17:15:35.666Z,97453.08
2019-02-12T17:21:36.788Z,97465.16
2019-02-12T17:24:11.000Z,97474.88
2019-02-12T17:26:55.725Z,97478.34
2019-02-12T17:29:44.923Z,97480.16
2019-02-12T17:32:26.457Z,97479.83
2019-02-12T17:35:01.385Z,97483.13
2019-02-12T17:44:57.391Z,97495.37
2019-02-12T17:48:00.700Z,97505.09
2019-02-12T17:57:10.179Z,97503.15
2019-02-12T17:59:41.016Z,97503.51
2019-02-12T18:02:11.719Z,97511.44
2019-02-12T18:04:44.823Z,97508.01
2019-02-12T18:07:34.521Z,97509.16
2019-02-12T18:10:10.518Z,97521.70
2019-02-12T18:13:19.324Z,97529.27
2019-02-12T18:16:40.364Z,97534.38
2019-02-12T18:19:12.189Z,97533.89
2019-02-12T18:22:04.370Z,97535.53
2019-02-12T18:24:34.730Z,97540.31
2019-02-12T18:30:48.807Z,97544.44
2019-02-12T18:36:22.214Z,97548.36
2019-02-12T18:39:11.694Z,97556.27
2019-02-12T18:42:00.913Z,97552.97
2019-02-12T18:50:15.013Z,97563.35
2019-02-12T18:53:04.406Z,97558.93
2019-02-12T18:55:34.745Z,97564.86
2019-02-12T18:58:24.354Z,97566.83
2019-02-12T19:04:11.833Z,97568.33
2019-02-12T19:07:10.218Z,97568.48
2019-02-12T19:09:54.079Z,97567.83
2019-02-12T19:12:25.683Z,97565.85
2019-02-12T19:14:57.578Z,97566.50
2019-02-12T19:17:43.432Z,97567.98
2019-02-12T19:20:32.875Z,97574.88
2019-02-12T19:26:31.175Z,97584.27
2019-02-12T19:29:22.147Z,97581.14
2019-02-12T19:35:41.530Z,97594.30
2019-02-12T19:38:32.149Z,97589.86
2019-02-12T19:41:17.171Z,97586.40
2019-02-12T19:43:47.508Z,97585.92
2019-02-12T19:49:18.678Z,97584.78
2019-02-12T20:06:57.103Z,97595.66
2019-02-12T20:09:29.341Z,97591.86
2019-02-12T20:12:14.589Z,97595.63
2019-02-12T20:14:45.091Z,97591.84
2019-02-12T20:17:17.935Z,97592.34
2019-02-12T20:20:08.821Z,97591.50
2019-02-12T20:22:50.735Z,97595.46
2019-02-12T20:25:34.758Z,97586.56
2019-02-12T20:31:01.419Z,97595.92
2019-02-12T20:33:45.016Z,97599.18
2019-02-12T20:36:15.380Z,97599.52
2019-02-12T20:38:48.229Z,97603.46
2019-02-12T20:41:52.429Z,97600.19
2019-02-12T20:45:03.740Z,97594.59
2019-02-12T20:47:38.021Z,97596.91
2019-02-12T20:50:31.965Z,97591.97
2019-02-12T20:53:22.995Z,97604.12
2019-02-12T20:55:53.276Z,97598.86
2019-02-12T20:58:36.096Z,97604.98
2019-02-12T21:01:19.919Z,97607.61
2019-02-12T21:10:50.038Z,97596.91
2019-02-12T21:21:21.232Z,97606.00
2019-02-12T21:41:55.744Z,97615.39
2019-02-12T21:51:53.377Z,97619.19
2019-02-12T21:54:59.107Z,97620.50
2019-02-12T21:58:43.688Z,97625.61
2019-02-12T22:12:23.217Z,97617.89
2019-02-12T22:24:41.839Z,97618.36
2019-02-12T22:27:55.958Z,97622.50
2019-02-12T22:31:10.832Z,97625.80
2019-02-12T22:33:41.115Z,97633.05
2019-02-12T22:40:04.517Z,97634.03
2019-02-12T22:47:03.566Z,97632.38
2019-02-12T22:50:30.929Z,97626.44
2019-02-12T22:56:46.998Z,97625.13
2019-02-12T22:59:52.701Z,97632.38
2019-02-12T23:09:35.639Z,97626.28
2019-02-12T23:18:12.420Z,97630.74
2019-02-12T23:23:48.779Z,97633.19
2019-02-12T23:32:16.719Z,97630.08
2019-02-12T23:34:57.861Z,97629.74
2019-02-12T23:37:48.176Z,97624.80
2019-02-12T23:40:25.611Z,97634.36
2019-02-12T23:43:15.274Z,97640.30
2019-02-12T23:45:47.653Z,97641.42
2019-02-12T23:48:38.339Z,97643.42
2019-02-12T23:51:10.974Z,97640.30
2019-02-12T23:53:41.514Z,97645.56
2019-02-12T23:56:51.837Z,97653.62
